createdAt,value
2018-07-25T00:00:18.316Z,10.37
2018-07-25T00:02:47.017Z,11.23
2018-07-25T00:05:15.580Z,8.63
2018-07-25T00:07:44.329Z,8.57
2018-07-25T00:10:12.856Z,9.10
2018-07-25T00:12:41.349Z,8.73
2018-07-25T00:15:09.808Z,8.27
2018-07-25T00:17:38.441Z,8.23
2018-07-25T00:20:06.821Z,8.77
2018-07-25T00:22:35.269Z,9.50
2018-07-25T00:25:04.050Z,12.53
2018-07-25T00:27:32.580Z,9.93
2018-07-25T00:30:01.239Z,9.87
2018-07-25T00:32:29.810Z,12.30
2018-07-25T00:34:58.385Z,8.17
2018-07-25T00:37:26.874Z,8.40
2018-07-25T00:39:55.302Z,9.63
2018-07-25T00:42:23.866Z,9.07
2018-07-25T00:44:52.345Z,9.63
2018-07-25T00:47:20.972Z,8.70
2018-07-25T00:49:49.438Z,10.13
2018-07-25T00:52:18.877Z,10.97
2018-07-25T00:54:47.421Z,8.80
2018-07-25T00:57:16.774Z,9.50
2018-07-25T00:59:45.197Z,9.50
2018-07-25T01:02:13.649Z,10.13
2018-07-25T01:04:42.076Z,9.27
2018-07-25T01:07:10.502Z,9.77
2018-07-25T01:09:39.256Z,9.73
2018-07-25T01:12:07.936Z,9.50
2018-07-25T01:14:36.460Z,9.50
2018-07-25T01:17:05.292Z,11.03
2018-07-25T01:19:33.899Z,9.70
2018-07-25T01:22:02.669Z,9.33
2018-07-25T01:24:31.334Z,9.03
2018-07-25T01:27:00.061Z,9.10
2018-07-25T01:29:28.853Z,9.73
2018-07-25T01:31:57.373Z,8.20
2018-07-25T01:34:25.968Z,9.30
2018-07-25T01:36:55.040Z,9.43
2018-07-25T01:39:23.530Z,12.73
2018-07-25T01:41:52.047Z,9.87
2018-07-25T01:44:20.990Z,10.00
2018-07-25T01:46:49.646Z,12.90
2018-07-25T01:49:18.174Z,9.53
2018-07-25T01:51:53.195Z,10.57
2018-07-25T01:54:21.840Z,10.37
2018-07-25T01:56:50.293Z,11.27
2018-07-25T01:59:18.743Z,9.80
2018-07-25T02:01:47.418Z,10.67
2018-07-25T02:04:16.350Z,11.47
2018-07-25T02:06:44.845Z,11.63
2018-07-25T02:09:13.289Z,10.27
2018-07-25T02:11:42.092Z,11.33
2018-07-25T02:14:10.514Z,10.27
2018-07-25T02:16:38.663Z,11.30
2018-07-25T02:19:07.325Z,9.93
2018-07-25T02:21:36.176Z,14.20
2018-07-25T02:24:04.710Z,11.63
2018-07-25T02:26:33.141Z,12.73
2018-07-25T02:29:01.811Z,10.90
2018-07-25T02:31:30.643Z,10.77
2018-07-25T02:34:04.467Z,10.70
2018-07-25T02:36:33.217Z,11.00
2018-07-25T02:39:02.085Z,13.17
2018-07-25T02:41:30.832Z,10.60
2018-07-25T02:43:59.899Z,10.20
2018-07-25T02:46:28.604Z,12.37
2018-07-25T02:48:57.522Z,11.70
2018-07-25T02:51:26.418Z,11.83
2018-07-25T02:53:55.441Z,10.43
2018-07-25T02:56:24.074Z,10.87
2018-07-25T02:58:52.943Z,14.77
2018-07-25T03:01:21.467Z,12.97
2018-07-25T03:03:50.065Z,12.10
2018-07-25T03:06:18.499Z,13.13
2018-07-25T03:08:46.852Z,13.57
2018-07-25T03:11:15.283Z,13.83
2018-07-25T03:13:43.864Z,14.53
2018-07-25T03:16:12.514Z,14.40
2018-07-25T03:18:41.205Z,15.30
2018-07-25T03:21:09.842Z,15.10
2018-07-25T03:23:38.493Z,15.27
2018-07-25T03:26:07.250Z,14.80
2018-07-25T03:28:35.896Z,17.07
2018-07-25T03:31:04.601Z,15.37
2018-07-25T03:33:33.240Z,16.63
2018-07-25T03:36:01.968Z,16.70
2018-07-25T03:38:30.507Z,16.67
2018-07-25T03:40:59.295Z,17.77
2018-07-25T03:43:27.852Z,16.40
2018-07-25T03:45:56.561Z,16.93
2018-07-25T03:48:25.375Z,15.53
2018-07-25T03:50:53.816Z,18.20
2018-07-25T03:53:22.278Z,18.30
2018-07-25T03:55:50.708Z,16.73
2018-07-25T03:58:19.136Z,17.30
2018-07-25T04:00:47.609Z,16.93
2018-07-25T04:03:16.085Z,17.37
2018-07-25T04:05:44.513Z,16.13
2018-07-25T04:08:13.015Z,16.37
2018-07-25T04:10:43.476Z,18.67
2018-07-25T04:13:11.903Z,17.63
2018-07-25T04:15:40.353Z,16.40
2018-07-25T04:18:08.856Z,15.97
2018-07-25T04:20:37.444Z,15.97
2018-07-25T04:23:06.510Z,16.07
2018-07-25T04:25:35.055Z,15.83
2018-07-25T04:28:03.290Z,17.03
2018-07-25T04:30:31.812Z,15.93
2018-07-25T04:33:00.555Z,15.33
2018-07-25T04:35:29.460Z,15.97
2018-07-25T04:37:58.105Z,15.27
2018-07-25T04:40:27.112Z,13.93
2018-07-25T04:42:55.596Z,16.53
2018-07-25T04:45:24.535Z,16.37
2018-07-25T04:47:53.121Z,16.37
2018-07-25T04:50:21.771Z,16.23
2018-07-25T04:52:50.178Z,17.43
2018-07-25T04:55:18.691Z,18.30
2018-07-25T04:57:47.352Z,14.93
2018-07-25T05:00:16.497Z,14.47
2018-07-25T05:02:45.421Z,14.90
2018-07-25T05:05:13.905Z,15.67
2018-07-25T05:07:42.354Z,19.37
2018-07-25T05:10:10.814Z,14.83
2018-07-25T05:12:39.284Z,15.13
2018-07-25T05:15:07.736Z,17.30
2018-07-25T05:17:36.360Z,14.20
2018-07-25T05:20:05.254Z,14.47
2018-07-25T05:22:33.699Z,13.53
2018-07-25T05:25:02.138Z,13.60
2018-07-25T05:27:31.219Z,13.00
2018-07-25T05:29:59.676Z,13.70
2018-07-25T05:32:28.144Z,13.53
2018-07-25T05:34:56.575Z,13.03
2018-07-25T05:37:25.358Z,12.83
2018-07-25T05:39:53.768Z,12.83
2018-07-25T05:42:23.536Z,14.27
2018-07-25T05:44:51.967Z,14.20
2018-07-25T05:47:20.454Z,14.67
2018-07-25T05:49:49.778Z,14.10
2018-07-25T05:52:18.588Z,14.20
2018-07-25T05:54:47.231Z,19.17
2018-07-25T05:57:15.704Z,19.23
2018-07-25T05:59:44.185Z,19.60
2018-07-25T06:02:12.821Z,14.30
2018-07-25T06:04:41.235Z,15.53
2018-07-25T06:07:09.695Z,15.85
2018-07-25T06:09:38.142Z,18.57
2018-07-25T06:12:06.547Z,15.15
2018-07-25T06:14:35.007Z,16.80
2018-07-25T06:17:03.558Z,13.80
2018-07-25T06:19:32.174Z,23.55
2018-07-25T06:22:00.717Z,20.68
2018-07-25T06:24:29.186Z,21.50
2018-07-25T06:26:57.656Z,15.13
2018-07-25T06:29:26.077Z,15.00
2018-07-25T06:31:54.541Z,14.07
2018-07-25T06:34:22.996Z,14.40
2018-07-25T06:36:51.494Z,14.80
2018-07-25T06:39:20.069Z,17.25
2018-07-25T06:41:48.600Z,15.40
2018-07-25T06:44:16.756Z,13.83
2018-07-25T06:46:45.220Z,14.13
2018-07-25T06:49:14.038Z,13.13
2018-07-25T06:51:42.572Z,14.55
2018-07-25T06:54:11.057Z,13.10
2018-07-25T06:56:39.986Z,14.07
2018-07-25T06:59:08.420Z,14.70
2018-07-25T07:01:37.028Z,13.62
2018-07-25T07:04:06.032Z,14.60
2018-07-25T07:06:34.592Z,15.72
2018-07-25T07:09:03.342Z,14.47
2018-07-25T07:11:31.866Z,14.58
2018-07-25T07:14:01.166Z,13.40
2018-07-25T07:16:29.630Z,14.58
2018-07-25T07:18:58.098Z,14.65
2018-07-25T07:21:26.741Z,13.30
2018-07-25T07:23:55.306Z,12.80
2018-07-25T07:26:23.736Z,14.18
2018-07-25T07:28:52.285Z,11.88
2018-07-25T07:31:21.378Z,13.55
2018-07-25T07:33:49.816Z,11.78
2018-07-25T07:36:18.689Z,14.47
2018-07-25T07:38:47.303Z,14.20
2018-07-25T07:41:15.829Z,13.08
2018-07-25T07:43:44.468Z,13.78
2018-07-25T07:46:13.353Z,14.87
2018-07-25T07:48:41.840Z,12.18
2018-07-25T07:51:10.592Z,14.28
2018-07-25T07:53:39.040Z,13.32
2018-07-25T07:56:07.495Z,17.95
2018-07-25T07:58:36.025Z,15.20
2018-07-25T08:01:04.516Z,16.05
2018-07-25T08:03:33.319Z,12.90
2018-07-25T08:06:01.883Z,11.55
2018-07-25T08:08:30.401Z,15.28
2018-07-25T08:10:59.980Z,14.75
2018-07-25T08:13:29.085Z,15.83
2018-07-25T08:15:57.614Z,14.85
2018-07-25T08:18:26.074Z,13.83
2018-07-25T08:20:54.700Z,13.68
2018-07-25T08:23:23.181Z,13.25
2018-07-25T08:25:52.766Z,12.90
2018-07-25T08:28:21.303Z,12.75
2018-07-25T08:30:50.120Z,12.60
2018-07-25T08:33:18.833Z,13.15
2018-07-25T08:35:47.456Z,15.32
2018-07-25T08:38:17.454Z,13.08
2018-07-25T08:40:45.917Z,13.78
2018-07-25T08:43:14.507Z,15.13
2018-07-25T08:45:43.120Z,13.70
2018-07-25T08:48:12.562Z,14.18
2018-07-25T08:50:41.300Z,15.28
2018-07-25T08:53:09.795Z,12.47
2018-07-25T08:55:38.342Z,11.88
2018-07-25T08:58:06.809Z,13.00
2018-07-25T09:00:35.422Z,16.50
2018-07-25T09:03:03.886Z,13.20
2018-07-25T09:05:32.363Z,12.25
2018-07-25T09:08:00.839Z,12.05
2018-07-25T09:10:29.389Z,13.10
2018-07-25T09:12:57.946Z,10.65
2018-07-25T09:15:26.447Z,12.15
2018-07-25T09:17:54.977Z,11.35
2018-07-25T09:20:23.598Z,10.30
2018-07-25T09:22:52.505Z,10.88
2018-07-25T09:25:21.016Z,16.07
2018-07-25T09:27:49.545Z,10.00
2018-07-25T09:30:20.133Z,8.58
2018-07-25T09:32:48.668Z,10.05
2018-07-25T09:35:17.404Z,7.55
2018-07-25T09:37:46.589Z,7.37
2018-07-25T09:40:15.853Z,7.78
2018-07-25T09:42:45.105Z,9.13
2018-07-25T09:45:13.645Z,7.90
2018-07-25T09:47:43.087Z,8.03
2018-07-25T09:50:11.256Z,9.43
2018-07-25T09:52:40.443Z,8.98
2018-07-25T09:55:10.755Z,7.12
2018-07-25T09:57:39.320Z,6.70
2018-07-25T10:00:10.878Z,7.50
2018-07-25T10:02:40.169Z,7.12
2018-07-25T10:05:09.648Z,9.83
2018-07-25T10:07:38.138Z,7.35
2018-07-25T10:10:07.323Z,14.23
2018-07-25T10:12:35.993Z,9.23
2018-07-25T10:15:04.898Z,7.75
2018-07-25T10:17:33.504Z,7.90
2018-07-25T10:20:02.949Z,10.25
2018-07-25T10:22:31.747Z,8.58
2018-07-25T10:25:00.307Z,8.60
2018-07-25T10:27:28.810Z,9.58
2018-07-25T10:29:57.491Z,7.95
2018-07-25T10:32:26.570Z,7.45
2018-07-25T10:34:55.020Z,8.35
2018-07-25T10:37:23.470Z,7.10
2018-07-25T10:39:51.971Z,6.08
2018-07-25T10:42:20.461Z,7.17
2018-07-25T10:44:48.962Z,6.60
2018-07-25T10:47:17.906Z,6.70
2018-07-25T10:49:47.420Z,5.75
2018-07-25T10:52:16.486Z,6.08
2018-07-25T10:54:45.238Z,5.33
2018-07-25T10:57:14.026Z,6.22
2018-07-25T10:59:42.512Z,5.83
2018-07-25T11:02:11.535Z,6.33
2018-07-25T11:04:40.959Z,8.78
2018-07-25T11:07:09.436Z,6.90
2018-07-25T11:09:37.926Z,5.53
2018-07-25T11:12:06.409Z,6.75
2018-07-25T11:14:34.971Z,6.33
2018-07-25T11:17:03.474Z,6.42
2018-07-25T11:19:32.892Z,9.05
2018-07-25T11:22:01.798Z,7.70
2018-07-25T11:24:30.382Z,11.18
2018-07-25T11:26:59.568Z,7.08
2018-07-25T11:29:28.064Z,7.60
2018-07-25T11:31:56.545Z,6.70
2018-07-25T11:34:25.045Z,7.10
2018-07-25T11:36:53.843Z,11.00
2018-07-25T11:39:22.337Z,8.13
2018-07-25T11:41:50.804Z,7.25
2018-07-25T11:44:19.316Z,8.20
2018-07-25T11:46:47.833Z,8.58
2018-07-25T11:49:16.981Z,10.70
2018-07-25T11:51:45.802Z,9.28
2018-07-25T11:54:14.223Z,8.65
2018-07-25T11:56:42.887Z,11.22
2018-07-25T11:59:11.294Z,6.65
2018-07-25T12:01:39.772Z,10.48
2018-07-25T12:04:08.520Z,8.73
2018-07-25T12:06:37.119Z,8.95
2018-07-25T12:09:08.511Z,8.95
2018-07-25T12:11:41.336Z,10.65
2018-07-25T12:14:10.020Z,8.28
2018-07-25T12:16:38.560Z,7.55
2018-07-25T12:19:07.451Z,8.38
2018-07-25T12:21:35.986Z,12.05
2018-07-25T12:24:04.617Z,8.78
2018-07-25T12:26:33.110Z,8.65
2018-07-25T12:29:01.902Z,7.97
2018-07-25T12:31:30.406Z,6.62
2018-07-25T12:33:59.021Z,8.58
2018-07-25T12:36:27.857Z,6.15
2018-07-25T12:38:56.373Z,9.65
2018-07-25T12:41:24.902Z,7.87
2018-07-25T12:43:53.565Z,8.63
2018-07-25T12:46:23.476Z,7.47
2018-07-25T12:48:52.604Z,9.18
2018-07-25T12:51:21.142Z,7.20
2018-07-25T12:53:49.665Z,6.30
2018-07-25T12:56:18.060Z,7.22
2018-07-25T12:58:46.716Z,5.20
2018-07-25T13:01:15.276Z,6.70
2018-07-25T13:03:43.752Z,6.15
2018-07-25T13:06:12.288Z,5.47
2018-07-25T13:08:40.924Z,6.60
2018-07-25T13:11:09.497Z,5.55
2018-07-25T13:13:38.341Z,5.55
2018-07-25T13:16:06.852Z,9.28
2018-07-25T13:18:35.361Z,7.45
2018-07-25T13:21:03.889Z,5.20
2018-07-25T13:23:33.134Z,5.33
2018-07-25T13:26:01.831Z,4.95
2018-07-25T13:28:30.587Z,5.92
2018-07-25T13:30:59.086Z,6.17
2018-07-25T13:33:27.595Z,6.22
2018-07-25T13:35:56.147Z,8.13
2018-07-25T13:38:24.985Z,15.60
2018-07-25T13:40:53.656Z,6.15
2018-07-25T13:43:22.141Z,7.67
2018-07-25T13:45:50.652Z,6.70
2018-07-25T13:48:19.137Z,9.10
2018-07-25T13:50:47.628Z,6.05
2018-07-25T13:53:16.141Z,9.50
2018-07-25T13:55:44.831Z,5.53
2018-07-25T13:58:13.329Z,8.20
2018-07-25T14:00:41.797Z,7.33
2018-07-25T14:03:10.255Z,6.00
2018-07-25T14:05:38.773Z,5.77
2018-07-25T14:08:07.284Z,6.53
2018-07-25T14:10:35.898Z,5.78
2018-07-25T14:13:04.529Z,5.10
2018-07-25T14:15:35.113Z,8.43
2018-07-25T14:18:04.133Z,5.25
2018-07-25T14:20:32.666Z,6.70
2018-07-25T14:23:01.181Z,7.28
2018-07-25T14:25:29.696Z,8.03
2018-07-25T14:27:58.661Z,6.45
2018-07-25T14:30:27.038Z,6.77
2018-07-25T14:32:56.131Z,7.17
2018-07-25T14:35:26.762Z,7.33
2018-07-25T14:37:56.359Z,5.77
2018-07-25T14:40:24.891Z,6.05
2018-07-25T14:42:53.440Z,5.57
2018-07-25T14:45:21.907Z,5.87
2018-07-25T14:47:50.406Z,6.80
2018-07-25T14:50:19.272Z,7.07
2018-07-25T14:52:47.785Z,7.47
2018-07-25T14:55:16.338Z,5.90
2018-07-25T14:57:44.958Z,5.70
2018-07-25T15:00:13.535Z,6.07
2018-07-25T15:02:42.136Z,6.37
2018-07-25T15:05:10.685Z,6.27
2018-07-25T15:07:39.336Z,5.60
2018-07-25T15:10:07.957Z,6.20
2018-07-25T15:12:42.864Z,5.83
2018-07-25T15:15:12.286Z,7.90
2018-07-25T15:17:40.829Z,8.50
2018-07-25T15:20:10.474Z,8.93
2018-07-25T15:22:39.567Z,5.87
2018-07-25T15:25:08.221Z,5.00
2018-07-25T15:27:37.097Z,4.92
2018-07-25T15:30:07.240Z,6.33
2018-07-25T15:32:35.754Z,6.20
2018-07-25T15:35:04.614Z,5.30
2018-07-25T15:37:33.414Z,5.60
2018-07-25T15:40:02.364Z,5.63
2018-07-25T15:42:30.599Z,5.20
2018-07-25T15:44:59.601Z,6.60
2018-07-25T15:47:28.622Z,5.50
2018-07-25T15:49:58.455Z,5.40
2018-07-25T15:52:26.938Z,5.50
2018-07-25T15:54:55.445Z,6.33
2018-07-25T15:57:23.941Z,5.00
2018-07-25T15:59:52.548Z,6.50
2018-07-25T16:02:21.112Z,5.57
2018-07-25T16:04:49.826Z,5.93
2018-07-25T16:07:18.352Z,6.30
2018-07-25T16:09:46.864Z,8.07
2018-07-25T16:12:15.434Z,4.70
2018-07-25T16:14:43.981Z,4.70
2018-07-25T16:17:12.526Z,5.07
2018-07-25T16:19:41.038Z,5.40
2018-07-25T16:22:09.555Z,5.07
2018-07-25T16:24:38.032Z,9.07
2018-07-25T16:27:06.548Z,6.20
2018-07-25T16:29:35.016Z,4.73
2018-07-25T16:32:03.561Z,5.90
2018-07-25T16:34:32.125Z,8.40
2018-07-25T16:37:00.671Z,6.30
2018-07-25T16:39:29.277Z,6.80
2018-07-25T16:41:57.776Z,8.20
2018-07-25T16:44:26.282Z,8.57
2018-07-25T16:46:55.862Z,7.70
2018-07-25T16:49:24.381Z,6.23
2018-07-25T16:51:53.298Z,6.57
2018-07-25T16:54:21.846Z,8.03
2018-07-25T16:56:50.367Z,8.10
2018-07-25T16:59:19.023Z,7.47
2018-07-25T17:01:47.529Z,7.23
2018-07-25T17:04:16.019Z,6.17
2018-07-25T17:06:44.496Z,6.03
2018-07-25T17:09:13.142Z,5.87
2018-07-25T17:11:41.933Z,6.87
2018-07-25T17:14:10.492Z,6.73
2018-07-25T17:16:39.121Z,7.80
2018-07-25T17:19:07.629Z,6.40
2018-07-25T17:21:36.379Z,6.57
2018-07-25T17:24:04.904Z,5.57
2018-07-25T17:26:33.521Z,5.73
2018-07-25T17:29:02.226Z,5.53
2018-07-25T17:31:31.185Z,5.90
2018-07-25T17:33:59.882Z,5.40
2018-07-25T17:36:28.549Z,6.53
2018-07-25T17:38:57.063Z,5.90
2018-07-25T17:41:25.869Z,5.33
2018-07-25T17:43:54.327Z,5.07
2018-07-25T17:46:22.498Z,5.87
2018-07-25T17:48:51.082Z,6.13
2018-07-25T17:51:19.655Z,5.77
2018-07-25T17:53:48.265Z,6.87
2018-07-25T17:56:16.938Z,6.20
2018-07-25T17:58:45.667Z,7.70
2018-07-25T18:01:14.162Z,8.13
2018-07-25T18:03:42.963Z,6.07
2018-07-25T18:06:11.418Z,10.23
2018-07-25T18:08:39.980Z,5.87
2018-07-25T18:11:08.842Z,5.37
2018-07-25T18:13:42.551Z,5.67
2018-07-25T18:16:11.238Z,8.70
2018-07-25T18:18:39.730Z,7.37
2018-07-25T18:21:09.506Z,6.37
2018-07-25T18:23:38.030Z,7.17
2018-07-25T18:26:07.684Z,6.20
2018-07-25T18:28:36.266Z,5.87
2018-07-25T18:31:05.919Z,7.80
2018-07-25T18:33:34.787Z,6.97
2018-07-25T18:36:03.708Z,6.43
2018-07-25T18:38:32.278Z,9.60
2018-07-25T18:41:00.868Z,5.83
2018-07-25T18:43:29.419Z,6.30
2018-07-25T18:45:58.167Z,7.83
2018-07-25T18:48:26.641Z,10.87
2018-07-25T18:50:55.214Z,6.60
2018-07-25T18:53:23.861Z,5.87
2018-07-25T18:55:52.853Z,8.07
2018-07-25T18:58:21.872Z,8.07
2018-07-25T19:00:50.491Z,9.57
2018-07-25T19:03:19.552Z,7.70
2018-07-25T19:05:49.608Z,9.03
2018-07-25T19:08:18.558Z,7.30
2018-07-25T19:10:47.542Z,8.07
2018-07-25T19:13:21.314Z,8.57
2018-07-25T19:15:49.780Z,6.27
2018-07-25T19:18:18.743Z,6.40
2018-07-25T19:20:47.809Z,5.90
2018-07-25T19:23:16.604Z,8.30
2018-07-25T19:25:45.613Z,9.17
2018-07-25T19:28:14.680Z,6.37
2018-07-25T19:30:43.672Z,6.20
2018-07-25T19:33:12.764Z,6.37
2018-07-25T19:35:41.668Z,5.87
2018-07-25T19:38:10.644Z,7.03
2018-07-25T19:40:39.263Z,7.00
2018-07-25T19:43:08.117Z,7.20
2018-07-25T19:45:37.107Z,5.63
2018-07-25T19:48:05.683Z,5.70
2018-07-25T19:50:34.521Z,6.40
2018-07-25T19:53:03.324Z,5.20
2018-07-25T19:55:32.453Z,6.40
2018-07-25T19:58:01.072Z,5.00
2018-07-25T20:00:30.066Z,5.53
2018-07-25T20:02:59.039Z,4.80
2018-07-25T20:05:27.668Z,4.27
2018-07-25T20:07:56.607Z,7.13
2018-07-25T20:10:25.133Z,6.37
2018-07-25T20:12:54.141Z,5.00
2018-07-25T20:15:27.623Z,6.70
2018-07-25T20:17:56.597Z,5.67
2018-07-25T20:20:25.278Z,4.73
2018-07-25T20:22:54.136Z,5.03
2018-07-25T20:25:23.019Z,4.90
2018-07-25T20:27:51.500Z,5.33
2018-07-25T20:30:20.530Z,4.90
2018-07-25T20:32:49.113Z,6.00
2018-07-25T20:35:17.760Z,6.87
2018-07-25T20:37:46.415Z,5.00
2018-07-25T20:40:15.167Z,7.73
2018-07-25T20:42:43.694Z,6.53
2018-07-25T20:45:12.206Z,5.40
2018-07-25T20:47:41.374Z,5.20
2018-07-25T20:50:10.884Z,5.30
2018-07-25T20:52:39.813Z,5.70
2018-07-25T20:55:08.364Z,6.10
2018-07-25T20:57:36.889Z,5.23
2018-07-25T21:00:05.537Z,5.47
2018-07-25T21:02:34.046Z,6.17
2018-07-25T21:05:02.687Z,5.63
2018-07-25T21:07:31.268Z,5.67
2018-07-25T21:09:59.756Z,5.30
2018-07-25T21:12:28.179Z,5.33
2018-07-25T21:14:56.391Z,5.90
2018-07-25T21:17:25.037Z,5.53
2018-07-25T21:19:53.593Z,7.07
2018-07-25T21:22:22.096Z,6.73
2018-07-25T21:24:50.574Z,5.33
2018-07-25T21:27:19.076Z,5.73
2018-07-25T21:29:47.533Z,8.47
2018-07-25T21:32:16.026Z,5.77
2018-07-25T21:34:44.572Z,6.50
2018-07-25T21:37:13.016Z,7.80
2018-07-25T21:39:41.584Z,5.47
2018-07-25T21:42:10.092Z,8.83
2018-07-25T21:44:38.626Z,7.33
2018-07-25T21:47:07.260Z,6.27
2018-07-25T21:49:35.752Z,5.93
2018-07-25T21:52:04.391Z,6.43
2018-07-25T21:54:32.900Z,8.90
2018-07-25T21:57:01.389Z,6.37
2018-07-25T21:59:30.014Z,6.47
2018-07-25T22:01:58.517Z,5.30
2018-07-25T22:04:26.987Z,8.53
2018-07-25T22:06:55.860Z,6.20
2018-07-25T22:09:24.363Z,5.97
2018-07-25T22:11:52.813Z,6.50
2018-07-25T22:14:21.354Z,5.80
2018-07-25T22:16:49.901Z,5.63
2018-07-25T22:19:18.566Z,5.40
2018-07-25T22:21:47.067Z,8.53
2018-07-25T22:24:15.492Z,8.17
2018-07-25T22:26:44.005Z,7.60
2018-07-25T22:29:12.554Z,6.13
2018-07-25T22:31:41.006Z,5.57
2018-07-25T22:34:09.645Z,6.60
2018-07-25T22:36:38.140Z,6.47
2018-07-25T22:39:11.158Z,6.23
2018-07-25T22:41:42.732Z,6.10
2018-07-25T22:44:11.582Z,6.17
2018-07-25T22:46:39.977Z,6.37
2018-07-25T22:49:08.431Z,7.80
2018-07-25T22:51:37.104Z,8.07
2018-07-25T22:54:05.843Z,6.47
2018-07-25T22:56:34.263Z,5.90
2018-07-25T22:59:03.001Z,6.13
2018-07-25T23:01:31.433Z,8.63
2018-07-25T23:03:59.883Z,5.77
2018-07-25T23:06:28.372Z,8.43
2018-07-25T23:08:56.849Z,7.93
2018-07-25T23:11:25.310Z,9.33
2018-07-25T23:13:53.847Z,6.60
2018-07-25T23:16:22.496Z,9.10
2018-07-25T23:18:50.931Z,9.10
2018-07-25T23:21:19.396Z,6.93
2018-07-25T23:23:47.948Z,6.60
2018-07-25T23:26:16.386Z,8.47
2018-07-25T23:28:44.907Z,10.50
2018-07-25T23:31:13.361Z,7.07
2018-07-25T23:33:41.817Z,8.60
2018-07-25T23:36:10.301Z,6.73
2018-07-25T23:38:38.777Z,12.63
2018-07-25T23:41:07.469Z,9.47
2018-07-25T23:43:35.901Z,7.20
2018-07-25T23:46:05.188Z,8.20
2018-07-25T23:48:33.629Z,8.77
2018-07-25T23:51:02.218Z,9.77
2018-07-25T23:53:30.914Z,6.77
2018-07-25T23:55:59.506Z,7.27
2018-07-25T23:58:27.989Z,8.83
